createdAt,value
2022-10-12T00:00:30.999Z,0.00
2022-10-12T00:01:31.068Z,0.00
2022-10-12T00:02:30.988Z,0.00
2022-10-12T00:03:30.966Z,0.00
2022-10-12T00:04:30.947Z,0.00
2022-10-12T00:05:30.947Z,0.00
2022-10-12T00:06:30.948Z,0.00
2022-10-12T00:07:30.919Z,0.00
2022-10-12T00:08:30.942Z,0.00
2022-10-12T00:09:30.930Z,0.00
2022-10-12T00:10:30.888Z,0.00
2022-10-12T00:11:30.888Z,0.00
2022-10-12T00:12:30.896Z,0.00
2022-10-12T00:13:30.859Z,0.00
2022-10-12T00:14:30.852Z,0.00
2022-10-12T00:15:30.858Z,0.00
2022-10-12T00:16:30.847Z,0.00
2022-10-12T00:17:30.817Z,0.00
2022-10-12T00:18:30.837Z,0.00
2022-10-12T00:19:30.793Z,0.00
2022-10-12T00:20:30.771Z,0.00
2022-10-12T00:21:30.771Z,0.00
2022-10-12T00:22:30.763Z,0.00
2022-10-12T00:23:30.777Z,0.00
2022-10-12T00:24:30.759Z,0.00
2022-10-12T00:25:30.758Z,0.00
2022-10-12T00:26:30.713Z,0.00
2022-10-12T00:27:30.706Z,0.00
2022-10-12T00:28:30.782Z,0.00
2022-10-12T00:29:30.714Z,0.00
2022-10-12T00:30:30.663Z,0.00
2022-10-12T00:31:30.683Z,0.00
2022-10-12T00:32:30.675Z,0.00
2022-10-12T00:33:30.643Z,0.00
2022-10-12T00:34:30.645Z,0.00
2022-10-12T00:35:30.614Z,0.00
2022-10-12T00:36:30.608Z,0.00
2022-10-12T00:37:30.615Z,0.00
2022-10-12T00:38:30.606Z,0.00
2022-10-12T00:39:30.598Z,0.00
2022-10-12T00:40:30.568Z,0.00
2022-10-12T00:41:30.584Z,0.00
2022-10-12T00:42:30.558Z,0.00
2022-10-12T00:43:30.565Z,0.00
2022-10-12T00:44:30.565Z,0.00
2022-10-12T00:45:30.515Z,0.00
2022-10-12T00:46:30.504Z,0.00
2022-10-12T00:47:30.492Z,0.00
2022-10-12T00:48:31.469Z,0.00
2022-10-12T00:49:30.465Z,0.00
2022-10-12T00:50:30.486Z,0.00
2022-10-12T00:51:30.467Z,0.00
2022-10-12T00:52:30.439Z,0.00
2022-10-12T00:53:30.417Z,0.00
2022-10-12T00:54:30.417Z,0.00
2022-10-12T00:55:30.404Z,0.00
2022-10-12T00:56:30.417Z,0.00
2022-10-12T00:57:30.387Z,0.00
2022-10-12T00:58:31.322Z,0.00
2022-10-12T00:59:30.358Z,0.00
2022-10-12T01:00:30.395Z,0.00
2022-10-12T01:01:30.342Z,0.00
2022-10-12T01:02:30.351Z,0.00
2022-10-12T01:03:30.308Z,0.00
2022-10-12T01:04:30.299Z,0.00
2022-10-12T01:05:30.308Z,0.00
2022-10-12T01:06:30.313Z,0.00
2022-10-12T01:07:30.267Z,0.00
2022-10-12T01:08:30.280Z,0.00
2022-10-12T01:09:30.259Z,0.00
2022-10-12T01:10:30.224Z,0.00
2022-10-12T01:11:30.238Z,0.00
2022-10-12T01:12:30.231Z,0.00
2022-10-12T01:13:30.226Z,0.00
2022-10-12T01:14:30.229Z,0.00
2022-10-12T01:15:30.182Z,0.00
2022-10-12T01:16:30.172Z,0.00
2022-10-12T01:17:30.169Z,0.00
2022-10-12T01:18:30.141Z,0.00
2022-10-12T01:19:30.156Z,0.00
2022-10-12T01:20:30.145Z,0.00
2022-10-12T01:21:30.125Z,0.00
2022-10-12T01:22:30.127Z,0.00
2022-10-12T01:23:30.093Z,0.00
2022-10-12T01:24:30.144Z,0.00
2022-10-12T01:25:30.073Z,0.00
2022-10-12T01:26:30.065Z,0.00
2022-10-12T01:27:30.054Z,0.00
2022-10-12T01:28:30.067Z,0.00
2022-10-12T01:29:30.034Z,0.00
2022-10-12T01:30:30.042Z,0.00
2022-10-12T01:31:32.619Z,0.00
2022-10-12T01:32:30.006Z,0.00
2022-10-12T01:33:30.018Z,0.00
2022-10-12T01:34:29.975Z,0.00
2022-10-12T01:35:30.004Z,0.00
2022-10-12T01:36:29.964Z,0.00
2022-10-12T01:37:29.962Z,0.00
2022-10-12T01:38:29.926Z,0.00
2022-10-12T01:39:30.891Z,0.00
2022-10-12T01:40:29.925Z,0.00
2022-10-12T01:41:29.925Z,0.00
2022-10-12T01:42:29.888Z,0.00
2022-10-12T01:43:29.892Z,0.00
2022-10-12T01:44:29.886Z,0.00
2022-10-12T01:45:30.840Z,0.00
2022-10-12T01:46:29.891Z,0.00
2022-10-12T01:47:29.841Z,0.00
2022-10-12T01:48:29.862Z,0.00
2022-10-12T01:49:29.818Z,0.00
2022-10-12T01:50:29.797Z,0.00
2022-10-12T01:51:29.802Z,0.00
2022-10-12T01:52:29.802Z,0.00
2022-10-12T01:53:29.767Z,0.00
2022-10-12T01:54:29.774Z,0.00
2022-10-12T01:55:29.738Z,0.00
2022-10-12T01:56:29.727Z,0.00
2022-10-12T01:57:29.734Z,0.00
2022-10-12T01:58:29.745Z,0.00
2022-10-12T01:59:29.713Z,0.00
2022-10-12T02:00:29.740Z,0.00
2022-10-12T02:01:29.772Z,0.00
2022-10-12T02:02:29.671Z,0.00
2022-10-12T02:03:29.700Z,0.00
2022-10-12T02:04:29.646Z,0.00
2022-10-12T02:05:29.654Z,0.00
2022-10-12T02:06:29.631Z,0.00
2022-10-12T02:07:29.621Z,0.00
2022-10-12T02:08:29.620Z,0.00
2022-10-12T02:09:29.639Z,0.00
2022-10-12T02:10:29.582Z,0.00
2022-10-12T02:11:29.572Z,0.00
2022-10-12T02:12:29.571Z,0.00
2022-10-12T02:13:29.585Z,0.00
2022-10-12T02:14:29.532Z,0.00
2022-10-12T02:15:29.556Z,0.00
2022-10-12T02:16:29.519Z,0.00
2022-10-12T02:17:29.515Z,0.00
2022-10-12T02:18:29.513Z,0.00
2022-10-12T02:19:29.523Z,0.00
2022-10-12T02:20:29.471Z,0.00
2022-10-12T02:21:29.463Z,0.00
2022-10-12T02:22:29.444Z,0.00
2022-10-12T02:23:29.448Z,0.00
2022-10-12T02:24:29.432Z,0.00
2022-10-12T02:25:29.440Z,0.00
2022-10-12T02:26:29.411Z,0.00
2022-10-12T02:27:29.525Z,0.00
2022-10-12T02:28:29.414Z,0.00
2022-10-12T02:29:29.372Z,0.00
2022-10-12T02:30:29.392Z,0.00
2022-10-12T02:31:29.375Z,0.00
2022-10-12T02:32:29.341Z,0.00
2022-10-12T02:33:29.326Z,0.00
2022-10-12T02:34:29.307Z,0.00
2022-10-12T02:35:29.310Z,0.00
2022-10-12T02:36:29.326Z,0.00
2022-10-12T02:37:29.286Z,0.00
2022-10-12T02:38:29.270Z,0.00
2022-10-12T02:39:29.262Z,0.00
2022-10-12T02:40:29.267Z,0.00
2022-10-12T02:41:29.261Z,0.00
2022-10-12T02:42:32.087Z,0.00
2022-10-12T02:43:30.233Z,0.00
2022-10-12T02:44:29.218Z,0.00
2022-10-12T02:45:29.197Z,0.00
2022-10-12T02:46:29.208Z,0.00
2022-10-12T02:47:29.180Z,0.00
2022-10-12T02:48:29.198Z,0.00
2022-10-12T02:49:29.170Z,0.00
2022-10-12T02:50:29.146Z,0.00
2022-10-12T02:51:29.139Z,0.00
2022-10-12T02:52:29.118Z,0.00
2022-10-12T02:53:29.091Z,0.00
2022-10-12T02:54:29.140Z,0.00
2022-10-12T02:55:29.080Z,0.00
2022-10-12T02:56:30.033Z,0.00
2022-10-12T02:57:29.051Z,0.00
2022-10-12T02:58:29.059Z,0.00
2022-10-12T02:59:29.051Z,0.00
2022-10-12T03:00:29.061Z,0.00
2022-10-12T03:01:29.073Z,0.00
2022-10-12T03:02:29.032Z,0.00
2022-10-12T03:03:28.986Z,0.00
2022-10-12T03:04:29.022Z,0.00
2022-10-12T03:05:28.983Z,0.00
2022-10-12T03:06:28.963Z,0.00
2022-10-12T03:07:28.974Z,0.00
2022-10-12T03:08:28.962Z,0.00
2022-10-12T03:09:28.933Z,0.00
2022-10-12T03:10:28.923Z,0.00
2022-10-12T03:11:28.968Z,0.00
2022-10-12T03:12:28.897Z,0.00
2022-10-12T03:13:28.882Z,0.00
2022-10-12T03:14:28.893Z,0.00
2022-10-12T03:15:28.895Z,0.00
2022-10-12T03:16:28.853Z,0.00
2022-10-12T03:17:28.878Z,0.00
2022-10-12T03:18:28.832Z,0.00
2022-10-12T03:19:29.777Z,0.00
2022-10-12T03:20:28.810Z,0.00
2022-10-12T03:21:28.796Z,0.00
2022-10-12T03:22:28.798Z,0.00
2022-10-12T03:23:28.796Z,0.00
2022-10-12T03:24:28.776Z,0.00
2022-10-12T03:25:28.785Z,0.00
2022-10-12T03:26:28.747Z,0.00
2022-10-12T03:27:28.777Z,0.00
2022-10-12T03:28:28.757Z,0.00
2022-10-12T03:29:28.704Z,0.00
2022-10-12T03:30:28.697Z,0.00
2022-10-12T03:31:28.695Z,0.00
2022-10-12T03:32:28.685Z,0.00
2022-10-12T03:33:28.687Z,0.00
2022-10-12T03:34:28.667Z,0.00
2022-10-12T03:35:28.701Z,0.00
2022-10-12T03:36:28.637Z,0.00
2022-10-12T03:37:28.615Z,0.00
2022-10-12T03:38:28.630Z,0.00
2022-10-12T03:39:28.596Z,0.00
2022-10-12T03:40:28.629Z,0.00
2022-10-12T03:41:28.585Z,0.00
2022-10-12T03:42:28.573Z,0.00
2022-10-12T03:43:28.567Z,0.00
2022-10-12T03:44:28.547Z,0.00
2022-10-12T03:45:28.538Z,0.00
2022-10-12T03:46:28.554Z,0.00
2022-10-12T03:47:28.516Z,0.00
2022-10-12T03:48:28.508Z,0.00
2022-10-12T03:49:28.510Z,0.00
2022-10-12T03:50:28.483Z,0.00
2022-10-12T03:51:28.483Z,0.00
2022-10-12T03:52:28.460Z,0.00
2022-10-12T03:53:28.449Z,0.00
2022-10-12T03:54:28.460Z,0.00
2022-10-12T03:55:28.427Z,0.00
2022-10-12T03:56:28.466Z,0.00
2022-10-12T03:57:28.401Z,0.00
2022-10-12T03:58:28.433Z,0.00
2022-10-12T03:59:28.377Z,0.00
2022-10-12T04:00:28.431Z,0.00
2022-10-12T04:01:28.618Z,0.00
2022-10-12T04:02:29.806Z,0.00
2022-10-12T04:03:28.353Z,0.00
2022-10-12T04:04:28.427Z,0.00
2022-10-12T04:05:28.312Z,0.00
2022-10-12T04:06:28.379Z,0.00
2022-10-12T04:07:28.323Z,0.00
2022-10-12T04:08:28.283Z,0.00
2022-10-12T04:09:28.262Z,0.00
2022-10-12T04:10:28.284Z,0.00
2022-10-12T04:11:28.244Z,0.00
2022-10-12T04:12:28.263Z,0.00
2022-10-12T04:13:29.675Z,0.00
2022-10-12T04:14:28.224Z,0.00
2022-10-12T04:15:28.277Z,0.00
2022-10-12T04:16:30.405Z,0.00
2022-10-12T04:17:28.286Z,0.00
2022-10-12T04:18:28.279Z,0.00
2022-10-12T04:19:28.189Z,0.00
2022-10-12T04:20:28.167Z,0.00
2022-10-12T04:21:28.152Z,0.00
2022-10-12T04:22:28.222Z,0.00
2022-10-12T04:23:30.068Z,0.00
2022-10-12T04:24:29.082Z,0.00
2022-10-12T04:25:30.222Z,0.00
2022-10-12T04:26:28.127Z,0.00
2022-10-12T04:27:28.677Z,0.00
2022-10-12T04:28:28.082Z,0.00
2022-10-12T04:29:28.156Z,0.00
2022-10-12T04:30:28.040Z,0.00
2022-10-12T04:31:28.148Z,0.00
2022-10-12T04:32:28.031Z,0.00
2022-10-12T04:33:28.024Z,0.00
2022-10-12T04:34:28.008Z,0.00
2022-10-12T04:35:28.110Z,0.00
2022-10-12T04:36:28.081Z,0.00
2022-10-12T04:37:28.160Z,0.00
2022-10-12T04:38:28.119Z,0.00
2022-10-12T04:39:27.951Z,0.00
2022-10-12T04:40:27.970Z,0.00
2022-10-12T04:41:27.933Z,0.00
2022-10-12T04:42:27.909Z,0.00
2022-10-12T04:43:27.924Z,0.00
2022-10-12T04:44:31.935Z,0.00
2022-10-12T04:45:27.870Z,0.00
2022-10-12T04:46:27.872Z,0.00
2022-10-12T04:47:28.233Z,0.00
2022-10-12T04:48:27.862Z,0.00
2022-10-12T04:49:27.824Z,0.00
2022-10-12T04:50:30.151Z,0.00
2022-10-12T04:51:27.823Z,0.00
2022-10-12T04:52:28.272Z,0.00
2022-10-12T04:53:27.835Z,0.00
2022-10-12T04:54:28.575Z,0.00
2022-10-12T04:55:27.772Z,0.00
2022-10-12T04:56:28.246Z,0.00
2022-10-12T04:57:27.760Z,0.00
2022-10-12T04:58:27.724Z,0.00
2022-10-12T04:59:27.733Z,0.00
2022-10-12T05:00:27.804Z,0.00
2022-10-12T05:01:27.731Z,0.00
2022-10-12T05:02:27.696Z,0.00
2022-10-12T05:03:27.664Z,0.00
2022-10-12T05:04:27.750Z,0.00
2022-10-12T05:05:27.663Z,0.00
2022-10-12T05:06:27.665Z,0.00
2022-10-12T05:07:27.637Z,0.00
2022-10-12T05:08:27.644Z,0.00
2022-10-12T05:09:27.688Z,0.00
2022-10-12T05:10:27.627Z,0.00
2022-10-12T05:11:27.581Z,0.00
2022-10-12T05:12:27.588Z,0.00
2022-10-12T05:13:27.588Z,0.00
2022-10-12T05:14:30.068Z,0.00
2022-10-12T05:15:28.613Z,0.00
2022-10-12T05:16:27.570Z,0.00
2022-10-12T05:17:27.520Z,0.00
2022-10-12T05:18:27.526Z,0.00
2022-10-12T05:19:27.563Z,0.00
2022-10-12T05:20:27.504Z,0.00
2022-10-12T05:21:28.940Z,0.00
2022-10-12T05:22:27.497Z,0.00
2022-10-12T05:23:27.472Z,0.00
2022-10-12T05:24:28.415Z,0.00
2022-10-12T05:25:27.437Z,0.00
2022-10-12T05:26:27.441Z,0.00
2022-10-12T05:27:27.448Z,0.00
2022-10-12T05:28:28.305Z,4.00
2022-10-12T05:29:27.398Z,4.00
2022-10-12T05:30:27.371Z,0.00
2022-10-12T05:31:27.373Z,4.00
2022-10-12T05:32:27.571Z,4.00
2022-10-12T05:33:28.330Z,4.00
2022-10-12T05:34:27.342Z,4.00
2022-10-12T05:35:28.788Z,4.00
2022-10-12T05:36:27.330Z,8.00
2022-10-12T05:37:28.259Z,8.00
2022-10-12T05:38:27.301Z,12.00
2022-10-12T05:39:27.325Z,12.00
2022-10-12T05:40:27.322Z,12.00
2022-10-12T05:41:27.291Z,12.00
2022-10-12T05:42:27.255Z,12.00
2022-10-12T05:43:27.250Z,16.00
2022-10-12T05:44:27.221Z,20.00
2022-10-12T05:45:28.012Z,20.00
2022-10-12T05:46:27.220Z,24.00
2022-10-12T05:47:28.156Z,32.00
2022-10-12T05:48:27.215Z,32.00
2022-10-12T05:49:27.220Z,36.00
2022-10-12T05:50:28.133Z,40.00
2022-10-12T05:51:29.178Z,44.00
2022-10-12T05:52:27.248Z,48.00
2022-10-12T05:53:27.126Z,52.00
2022-10-12T05:54:27.222Z,56.00
2022-10-12T05:55:28.075Z,64.00
2022-10-12T05:56:27.110Z,68.00
2022-10-12T05:57:27.079Z,76.00
2022-10-12T05:58:27.082Z,80.00
2022-10-12T05:59:27.083Z,84.00
2022-10-12T06:00:27.053Z,88.00
2022-10-12T06:01:27.065Z,92.00
2022-10-12T06:02:27.073Z,100.00
2022-10-12T06:03:28.674Z,104.00
2022-10-12T06:04:27.006Z,112.00
2022-10-12T06:05:27.236Z,116.00
2022-10-12T06:06:26.986Z,120.00
2022-10-12T06:07:26.964Z,128.00
2022-10-12T06:08:26.984Z,132.00
2022-10-12T06:09:26.953Z,140.00
2022-10-12T06:10:29.937Z,148.00
2022-10-12T06:11:26.921Z,156.00
2022-10-12T06:12:26.931Z,160.00
2022-10-12T06:13:26.942Z,168.00
2022-10-12T06:14:26.887Z,176.00
2022-10-12T06:15:26.882Z,180.00
2022-10-12T06:16:26.868Z,180.00
2022-10-12T06:17:26.838Z,184.00
2022-10-12T06:18:26.850Z,188.00
2022-10-12T06:19:27.517Z,196.00
2022-10-12T06:20:26.867Z,204.00
2022-10-12T06:21:34.796Z,208.00
2022-10-12T06:22:27.830Z,216.00
2022-10-12T06:23:26.779Z,224.00
2022-10-12T06:24:26.787Z,232.00
2022-10-12T06:25:27.718Z,240.00
2022-10-12T06:26:26.812Z,248.00
2022-10-12T06:27:26.755Z,256.00
2022-10-12T06:28:26.779Z,264.00
2022-10-12T06:29:26.724Z,276.00
2022-10-12T06:30:26.766Z,292.00
2022-10-12T06:31:26.753Z,300.00
2022-10-12T06:32:26.711Z,308.00
2022-10-12T06:33:26.681Z,320.00
2022-10-12T06:34:26.667Z,332.00
2022-10-12T06:35:26.678Z,348.00
2022-10-12T06:36:26.649Z,372.00
2022-10-12T06:37:48.583Z,404.00
2022-10-12T06:38:27.630Z,428.00
2022-10-12T06:39:26.618Z,456.00
2022-10-12T06:40:26.622Z,476.00
2022-10-12T06:41:26.598Z,484.00
2022-10-12T06:42:26.619Z,480.00
2022-10-12T06:43:26.585Z,472.00
2022-10-12T06:44:26.586Z,472.00
2022-10-12T06:45:26.554Z,480.00
2022-10-12T06:46:26.533Z,500.00
2022-10-12T06:47:26.523Z,508.00
2022-10-12T06:48:27.373Z,528.00
2022-10-12T06:49:26.575Z,552.00
2022-10-12T06:50:26.508Z,564.00
2022-10-12T06:51:26.484Z,572.00
2022-10-12T06:52:26.484Z,580.00
2022-10-12T06:53:26.454Z,588.00
2022-10-12T06:54:26.524Z,596.00
2022-10-12T06:55:26.524Z,592.00
2022-10-12T06:56:27.395Z,596.00
2022-10-12T06:57:26.431Z,596.00
2022-10-12T06:58:27.213Z,596.00
2022-10-12T06:59:26.395Z,600.00
2022-10-12T07:00:26.390Z,616.00
2022-10-12T07:01:26.434Z,632.00
2022-10-12T07:02:26.365Z,660.00
2022-10-12T07:03:27.324Z,684.00
2022-10-12T07:04:26.499Z,708.00
2022-10-12T07:05:26.399Z,740.00
2022-10-12T07:06:26.344Z,752.00
2022-10-12T07:07:26.986Z,776.00
2022-10-12T07:08:26.297Z,784.00
2022-10-12T07:09:26.287Z,788.00
2022-10-12T07:10:26.279Z,808.00
2022-10-12T07:11:26.266Z,812.00
2022-10-12T07:12:26.281Z,816.00
2022-10-12T07:13:26.244Z,816.00
2022-10-12T07:14:27.307Z,800.00
2022-10-12T07:15:26.255Z,764.00
2022-10-12T07:16:26.237Z,736.00
2022-10-12T07:17:26.220Z,712.00
2022-10-12T07:18:26.199Z,708.00
2022-10-12T07:19:26.203Z,704.00
2022-10-12T07:20:26.161Z,712.00
2022-10-12T07:21:26.390Z,732.00
2022-10-12T07:22:26.156Z,760.00
2022-10-12T07:23:26.129Z,792.00
2022-10-12T07:24:26.150Z,852.00
2022-10-12T07:25:26.123Z,916.00
2022-10-12T07:26:26.100Z,984.00
2022-10-12T07:27:26.091Z,1072.00
2022-10-12T07:28:26.139Z,1132.00
2022-10-12T07:29:26.129Z,1164.00
2022-10-12T07:30:26.081Z,1156.00
2022-10-12T07:31:26.049Z,1156.00
2022-10-12T07:32:26.050Z,1164.00
2022-10-12T07:33:26.043Z,1156.00
2022-10-12T07:34:26.020Z,1172.00
2022-10-12T07:35:26.000Z,1192.00
2022-10-12T07:36:41.052Z,1232.00
2022-10-12T07:37:27.007Z,1276.00
2022-10-12T07:38:25.979Z,1320.00
2022-10-12T07:39:25.951Z,1344.00
2022-10-12T07:40:25.972Z,1360.00
2022-10-12T07:41:25.947Z,1360.00
2022-10-12T07:42:25.957Z,1360.00
2022-10-12T07:43:25.943Z,1368.00
2022-10-12T07:44:25.908Z,1368.00
2022-10-12T07:45:25.885Z,1348.00
2022-10-12T07:46:25.886Z,1316.00
2022-10-12T07:47:25.906Z,1276.00
2022-10-12T07:48:25.881Z,1272.00
2022-10-12T07:49:25.914Z,1288.00
2022-10-12T07:50:25.863Z,1288.00
2022-10-12T07:51:25.824Z,1268.00
2022-10-12T07:52:25.806Z,1228.00
2022-10-12T07:53:25.834Z,1204.00
2022-10-12T07:54:29.349Z,1168.00
2022-10-12T07:55:25.788Z,1124.00
2022-10-12T07:56:25.765Z,1080.00
2022-10-12T07:57:25.762Z,1032.00
2022-10-12T07:58:25.775Z,992.00
2022-10-12T07:59:26.691Z,952.00
2022-10-12T08:00:25.726Z,892.00
2022-10-12T08:01:26.710Z,852.00
2022-10-12T08:02:25.720Z,816.00
2022-10-12T08:03:25.687Z,792.00
2022-10-12T08:04:26.659Z,780.00
2022-10-12T08:05:25.711Z,784.00
2022-10-12T08:06:25.670Z,780.00
2022-10-12T08:07:25.658Z,772.00
2022-10-12T08:08:27.369Z,752.00
2022-10-12T08:09:26.588Z,716.00
2022-10-12T08:10:25.612Z,688.00
2022-10-12T08:11:27.369Z,672.00
2022-10-12T08:12:25.611Z,668.00
2022-10-12T08:13:25.734Z,680.00
2022-10-12T08:14:26.337Z,692.00
2022-10-12T08:15:26.568Z,712.00
2022-10-12T08:16:25.630Z,736.00
2022-10-12T08:17:25.550Z,752.00
2022-10-12T08:18:25.530Z,772.00
2022-10-12T08:19:25.576Z,812.00
2022-10-12T08:20:26.961Z,852.00
2022-10-12T08:21:25.500Z,912.00
2022-10-12T08:22:25.501Z,956.00
2022-10-12T08:23:25.478Z,984.00
2022-10-12T08:24:27.390Z,1004.00
2022-10-12T08:25:26.411Z,1020.00
2022-10-12T08:26:25.455Z,1036.00
2022-10-12T08:27:26.298Z,1012.00
2022-10-12T08:28:25.476Z,972.00
2022-10-12T08:29:25.405Z,940.00
2022-10-12T08:30:25.436Z,904.00
2022-10-12T08:31:25.656Z,868.00
2022-10-12T08:32:25.411Z,852.00
2022-10-12T08:33:25.418Z,856.00
2022-10-12T08:34:25.351Z,848.00
2022-10-12T08:35:25.354Z,852.00
2022-10-12T08:36:25.485Z,860.00
2022-10-12T08:37:25.331Z,876.00
2022-10-12T08:38:25.304Z,896.00
2022-10-12T08:39:25.361Z,928.00
2022-10-12T08:40:25.285Z,968.00
2022-10-12T08:41:25.266Z,1008.00
2022-10-12T08:42:25.309Z,1064.00
2022-10-12T08:43:25.480Z,1104.00
2022-10-12T08:44:25.244Z,1160.00
2022-10-12T08:45:30.083Z,1232.00
2022-10-12T08:46:26.212Z,1316.00
2022-10-12T08:47:25.346Z,1388.00
2022-10-12T08:48:25.310Z,1464.00
2022-10-12T08:49:25.199Z,1548.00
2022-10-12T08:50:25.651Z,1624.00
2022-10-12T08:51:25.191Z,1672.00
2022-10-12T08:52:25.192Z,1696.00
2022-10-12T08:53:25.143Z,1736.00
2022-10-12T08:54:25.424Z,1828.00
2022-10-12T08:55:25.180Z,1936.00
2022-10-12T08:56:25.453Z,2056.00
2022-10-12T08:57:25.220Z,2164.00
2022-10-12T08:58:25.281Z,2256.00
2022-10-12T08:59:25.460Z,2324.00
2022-10-12T09:00:25.368Z,2380.00
2022-10-12T09:01:25.090Z,2468.00
2022-10-12T09:02:25.040Z,2544.00
2022-10-12T09:03:26.479Z,2596.00
2022-10-12T09:04:26.014Z,2592.00
2022-10-12T09:05:25.007Z,2544.00
2022-10-12T09:06:24.994Z,2484.00
2022-10-12T09:07:24.994Z,2424.00
2022-10-12T09:08:24.988Z,2360.00
2022-10-12T09:09:25.753Z,2388.00
2022-10-12T09:10:25.093Z,2464.00
2022-10-12T09:11:26.480Z,2520.00
2022-10-12T09:12:26.898Z,2496.00
2022-10-12T09:13:24.957Z,2488.00
2022-10-12T09:14:26.347Z,2504.00
2022-10-12T09:15:25.756Z,2476.00
2022-10-12T09:16:24.993Z,2344.00
2022-10-12T09:17:24.988Z,2240.00
2022-10-12T09:18:24.938Z,2172.00
2022-10-12T09:19:25.415Z,2156.00
2022-10-12T09:20:24.977Z,2176.00
2022-10-12T09:21:25.468Z,2232.00
2022-10-12T09:22:26.276Z,2252.00
2022-10-12T09:23:25.388Z,2160.00
2022-10-12T09:24:25.468Z,2052.00
2022-10-12T09:25:24.816Z,1896.00
2022-10-12T09:26:26.228Z,1752.00
2022-10-12T09:27:24.775Z,1668.00
2022-10-12T09:28:26.252Z,1648.00
2022-10-12T09:29:24.790Z,1692.00
2022-10-12T09:30:24.766Z,1780.00
2022-10-12T09:31:25.047Z,1820.00
2022-10-12T09:32:24.708Z,1820.00
2022-10-12T09:33:24.862Z,1728.00
2022-10-12T09:34:24.939Z,1604.00
2022-10-12T09:35:24.808Z,1560.00
2022-10-12T09:36:24.658Z,1572.00
2022-10-12T09:37:26.591Z,1572.00
2022-10-12T09:38:25.584Z,1588.00
2022-10-12T09:39:28.989Z,1656.00
2022-10-12T09:40:24.745Z,1688.00
2022-10-12T09:41:26.067Z,1672.00
2022-10-12T09:42:25.552Z,1596.00
2022-10-12T09:43:24.579Z,1540.00
2022-10-12T09:44:24.592Z,1444.00
2022-10-12T09:45:24.577Z,1392.00
2022-10-12T09:46:24.852Z,1292.00
2022-10-12T09:47:24.540Z,1188.00
2022-10-12T09:48:24.534Z,1156.00
2022-10-12T09:49:25.368Z,1136.00
2022-10-12T09:50:24.500Z,1128.00
2022-10-12T09:51:24.524Z,1172.00
2022-10-12T09:52:24.866Z,1208.00
2022-10-12T09:53:24.529Z,1168.00
2022-10-12T09:54:24.454Z,1100.00
2022-10-12T09:55:24.625Z,1064.00
2022-10-12T09:56:24.435Z,980.00
2022-10-12T09:57:24.457Z,968.00
2022-10-12T09:58:24.766Z,1112.00
2022-10-12T09:59:24.437Z,1208.00
2022-10-12T10:00:24.397Z,1368.00
2022-10-12T10:01:24.489Z,1488.00
2022-10-12T10:02:24.366Z,1544.00
2022-10-12T10:03:29.166Z,1600.00
2022-10-12T10:04:25.386Z,1608.00
2022-10-12T10:05:24.337Z,1588.00
2022-10-12T10:06:24.335Z,1588.00
2022-10-12T10:07:24.375Z,1584.00
2022-10-12T10:08:24.338Z,1500.00
2022-10-12T10:09:24.308Z,1460.00
2022-10-12T10:10:29.653Z,1444.00
2022-10-12T10:11:25.269Z,1428.00
2022-10-12T10:12:24.261Z,1428.00
2022-10-12T10:13:24.290Z,1572.00
2022-10-12T10:14:24.258Z,1620.00
2022-10-12T10:15:24.231Z,1696.00
2022-10-12T10:16:24.226Z,1628.00
2022-10-12T10:17:25.651Z,1528.00
2022-10-12T10:18:24.633Z,1412.00
2022-10-12T10:19:25.042Z,1400.00
2022-10-12T10:20:24.180Z,1280.00
2022-10-12T10:21:24.183Z,1152.00
2022-10-12T10:22:25.095Z,1056.00
2022-10-12T10:23:24.468Z,1072.00
2022-10-12T10:24:24.153Z,1156.00
2022-10-12T10:25:24.117Z,1140.00
2022-10-12T10:26:24.100Z,1112.00
2022-10-12T10:27:25.056Z,1152.00
2022-10-12T10:28:24.115Z,1132.00
2022-10-12T10:29:24.098Z,1184.00
2022-10-12T10:30:29.742Z,1096.00
2022-10-12T10:31:25.140Z,1064.00
2022-10-12T10:32:24.079Z,1064.00
2022-10-12T10:33:24.026Z,1084.00
2022-10-12T10:34:24.008Z,1116.00
2022-10-12T10:35:24.031Z,1152.00
2022-10-12T10:36:24.041Z,1180.00
2022-10-12T10:37:24.004Z,1192.00
2022-10-12T10:38:23.974Z,1188.00
2022-10-12T10:39:24.056Z,1164.00
2022-10-12T10:40:23.977Z,1112.00
2022-10-12T10:41:23.953Z,1084.00
2022-10-12T10:42:23.951Z,1116.00
2022-10-12T10:43:23.935Z,1176.00
2022-10-12T10:44:23.906Z,1192.00
2022-10-12T10:45:23.917Z,1200.00
2022-10-12T10:46:23.879Z,1276.00
2022-10-12T10:47:23.894Z,1364.00
2022-10-12T10:48:23.859Z,1464.00
2022-10-12T10:49:23.849Z,1488.00
2022-10-12T10:50:23.893Z,1456.00
2022-10-12T10:51:23.819Z,1424.00
2022-10-12T10:52:23.833Z,1408.00
2022-10-12T10:53:23.832Z,1404.00
2022-10-12T10:54:23.802Z,1388.00
2022-10-12T10:55:23.927Z,1380.00
2022-10-12T10:56:23.771Z,1372.00
2022-10-12T10:57:23.773Z,1360.00
2022-10-12T10:58:23.771Z,1340.00
2022-10-12T10:59:23.761Z,1336.00
2022-10-12T11:00:38.661Z,1288.00
2022-10-12T11:01:24.820Z,1348.00
2022-10-12T11:02:23.713Z,1412.00
2022-10-12T11:03:23.702Z,1400.00
2022-10-12T11:04:23.723Z,1500.00
2022-10-12T11:05:23.677Z,1564.00
2022-10-12T11:06:23.653Z,1680.00
2022-10-12T11:07:23.655Z,1612.00
2022-10-12T11:08:23.634Z,1740.00
2022-10-12T11:09:23.637Z,1804.00
2022-10-12T11:10:23.629Z,1964.00
2022-10-12T11:11:23.623Z,2048.00
2022-10-12T11:12:27.311Z,2124.00
2022-10-12T11:13:24.919Z,2252.00
2022-10-12T11:14:23.619Z,2332.00
2022-10-12T11:15:23.595Z,2388.00
2022-10-12T11:16:23.605Z,2492.00
2022-10-12T11:17:23.546Z,2616.00
2022-10-12T11:18:23.650Z,2780.00
2022-10-12T11:19:23.566Z,2840.00
2022-10-12T11:20:23.513Z,2764.00
2022-10-12T11:21:23.587Z,2788.00
2022-10-12T11:22:23.522Z,2736.00
2022-10-12T11:23:23.482Z,2664.00
2022-10-12T11:24:23.478Z,2564.00
2022-10-12T11:25:23.459Z,2440.00
2022-10-12T11:26:23.451Z,2488.00
2022-10-12T11:27:23.423Z,2472.00
2022-10-12T11:28:23.551Z,2404.00
2022-10-12T11:29:23.413Z,2452.00
2022-10-12T11:30:23.415Z,2528.00
2022-10-12T11:31:23.383Z,2564.00
2022-10-12T11:32:23.382Z,2516.00
2022-10-12T11:33:23.428Z,2548.00
2022-10-12T11:34:23.404Z,2552.00
2022-10-12T11:35:23.331Z,2720.00
2022-10-12T11:36:23.318Z,2616.00
2022-10-12T11:37:23.476Z,2564.00
2022-10-12T11:38:23.321Z,2444.00
2022-10-12T11:39:23.283Z,2464.00
2022-10-12T11:40:47.749Z,2584.00
2022-10-12T11:41:48.428Z,2656.00
2022-10-12T11:42:24.280Z,2720.00
2022-10-12T11:43:23.381Z,2904.00
2022-10-12T11:44:26.463Z,3016.00
2022-10-12T11:45:24.263Z,3136.00
2022-10-12T11:46:23.225Z,3228.00
2022-10-12T11:47:24.224Z,3284.00
2022-10-12T11:48:27.003Z,3316.00
2022-10-12T11:49:23.209Z,3336.00
2022-10-12T11:50:23.196Z,3292.00
2022-10-12T11:51:23.174Z,3196.00
2022-10-12T11:52:27.751Z,3384.00
2022-10-12T11:53:24.169Z,3484.00
2022-10-12T11:54:23.136Z,3364.00
2022-10-12T11:55:23.117Z,3420.00
2022-10-12T11:56:23.115Z,3500.00
2022-10-12T11:57:23.100Z,3468.00
2022-10-12T11:58:36.298Z,3492.00
2022-10-12T11:59:24.100Z,3468.00
2022-10-12T12:00:23.087Z,3396.00
2022-10-12T12:01:23.995Z,3600.00
2022-10-12T12:02:23.074Z,4064.00
2022-10-12T12:03:23.090Z,5892.00
2022-10-12T12:04:41.291Z,13304.00
2022-10-12T12:05:25.470Z,15120.00
2022-10-12T12:06:23.003Z,4740.00
2022-10-12T12:07:23.023Z,3540.00
2022-10-12T12:08:22.971Z,3404.00
2022-10-12T12:09:22.977Z,3100.00
2022-10-12T12:10:22.953Z,3140.00
2022-10-12T12:11:22.953Z,2728.00
2022-10-12T12:12:22.967Z,2708.00
2022-10-12T12:13:23.079Z,2840.00
2022-10-12T12:14:22.907Z,3256.00
2022-10-12T12:15:22.884Z,4064.00
2022-10-12T12:16:22.885Z,6216.00
2022-10-12T12:17:22.911Z,6480.00
2022-10-12T12:18:22.885Z,7000.00
2022-10-12T12:19:24.844Z,7772.00
2022-10-12T12:20:22.844Z,13416.00
2022-10-12T12:21:22.857Z,18496.00
2022-10-12T12:22:22.820Z,11620.00
2022-10-12T12:23:22.818Z,6072.00
2022-10-12T12:24:22.797Z,5780.00
2022-10-12T12:25:22.836Z,5056.00
2022-10-12T12:26:22.777Z,3988.00
2022-10-12T12:27:22.759Z,3752.00
2022-10-12T12:28:22.779Z,3880.00
2022-10-12T12:29:22.746Z,4744.00
2022-10-12T12:30:22.729Z,6280.00
2022-10-12T12:31:22.775Z,8048.00
2022-10-12T12:32:22.707Z,7700.00
2022-10-12T12:33:22.719Z,5104.00
2022-10-12T12:34:22.709Z,3808.00
2022-10-12T12:35:22.683Z,3788.00
2022-10-12T12:36:22.757Z,3816.00
2022-10-12T12:37:22.723Z,4280.00
2022-10-12T12:38:22.677Z,3592.00
2022-10-12T12:39:23.595Z,3340.00
2022-10-12T12:40:22.861Z,3312.00
2022-10-12T12:41:22.611Z,3276.00